createdAt,value
2022-10-20T00:00:06.938Z,1.98
2022-10-20T00:01:06.953Z,1.98
2022-10-20T00:02:06.933Z,2.08
2022-10-20T00:03:07.059Z,2.08
2022-10-20T00:04:06.932Z,2.26
2022-10-20T00:05:06.927Z,2.26
2022-10-20T00:06:06.928Z,1.84
2022-10-20T00:07:06.927Z,1.84
2022-10-20T00:08:06.966Z,2.25
2022-10-20T00:09:07.007Z,2.25
2022-10-20T00:10:06.934Z,1.92
2022-10-20T00:11:06.921Z,1.92
2022-10-20T00:12:06.917Z,2.16
2022-10-20T00:13:06.932Z,2.16
2022-10-20T00:14:06.932Z,1.94
2022-10-20T00:15:06.919Z,1.94
2022-10-20T00:16:06.929Z,2.19
2022-10-20T00:17:06.940Z,2.19
2022-10-20T00:18:06.916Z,2.37
2022-10-20T00:19:07.488Z,2.37
2022-10-20T00:20:06.983Z,2.25
2022-10-20T00:21:06.913Z,2.25
2022-10-20T00:22:07.026Z,2.08
2022-10-20T00:23:06.924Z,2.08
2022-10-20T00:24:06.921Z,2.51
2022-10-20T00:25:06.907Z,2.51
2022-10-20T00:26:06.922Z,2.11
2022-10-20T00:27:06.911Z,2.11
2022-10-20T00:28:06.904Z,1.9
2022-10-20T00:29:06.964Z,1.9
2022-10-20T00:30:06.906Z,2.95
2022-10-20T00:31:06.919Z,2.95
2022-10-20T00:32:06.897Z,2.2
2022-10-20T00:33:06.905Z,2.2
2022-10-20T00:34:06.896Z,1.78
2022-10-20T00:35:06.918Z,1.78
2022-10-20T00:36:06.908Z,2.18
2022-10-20T00:37:06.891Z,2.18
2022-10-20T00:38:06.901Z,2.11
2022-10-20T00:39:06.897Z,2.11
2022-10-20T00:40:06.891Z,2.25
2022-10-20T00:41:06.907Z,2.25
2022-10-20T00:42:06.886Z,1.85
2022-10-20T00:43:06.882Z,1.85
2022-10-20T00:44:06.902Z,2.11
2022-10-20T00:45:06.899Z,2.11
2022-10-20T00:46:06.885Z,1.85
2022-10-20T00:47:06.886Z,1.85
2022-10-20T00:48:06.892Z,2.41
2022-10-20T00:49:06.891Z,2.41
2022-10-20T00:50:06.882Z,2.28
2022-10-20T00:51:06.921Z,2.28
2022-10-20T00:52:06.892Z,1.69
2022-10-20T00:53:06.883Z,1.69
2022-10-20T00:54:06.872Z,2.13
2022-10-20T00:55:06.876Z,2.13
2022-10-20T00:56:06.893Z,1.78
2022-10-20T00:57:06.894Z,1.78
2022-10-20T00:58:06.879Z,1.52
2022-10-20T00:59:06.877Z,1.52
2022-10-20T01:00:06.880Z,2.25
2022-10-20T01:01:06.867Z,2.25
2022-10-20T01:02:07.012Z,2.04
2022-10-20T01:03:06.895Z,2.04
2022-10-20T01:04:06.858Z,2.68
2022-10-20T01:05:06.856Z,2.68
2022-10-20T01:06:06.905Z,2.42
2022-10-20T01:07:06.903Z,2.42
2022-10-20T01:08:06.861Z,2.39
2022-10-20T01:09:06.975Z,2.39
2022-10-20T01:10:06.859Z,1.71
2022-10-20T01:11:06.850Z,1.71
2022-10-20T01:12:06.848Z,2.61
2022-10-20T01:13:06.852Z,2.61
2022-10-20T01:14:06.862Z,2.05
2022-10-20T01:15:06.884Z,2.05
2022-10-20T01:16:06.865Z,2.27
2022-10-20T01:17:06.844Z,2.27
2022-10-20T01:18:06.854Z,2
2022-10-20T01:19:06.847Z,2
2022-10-20T01:20:06.862Z,2.09
2022-10-20T01:21:06.844Z,2.09
2022-10-20T01:22:06.838Z,2.28
2022-10-20T01:23:07.108Z,2.28
2022-10-20T01:24:06.845Z,2.31
2022-10-20T01:25:06.849Z,2.31
2022-10-20T01:26:06.834Z,3.38
2022-10-20T01:27:06.872Z,3.38
2022-10-20T01:28:06.844Z,1.96
2022-10-20T01:29:06.829Z,1.96
2022-10-20T01:30:06.835Z,2.29
2022-10-20T01:31:06.833Z,2.29
2022-10-20T01:32:06.861Z,2.34
2022-10-20T01:33:06.832Z,2.34
2022-10-20T01:34:06.846Z,2.41
2022-10-20T01:35:06.824Z,2.41
2022-10-20T01:36:06.839Z,2.46
2022-10-20T01:37:06.840Z,2.46
2022-10-20T01:38:06.846Z,2.25
2022-10-20T01:39:06.844Z,2.25
2022-10-20T01:40:06.823Z,2.01
2022-10-20T01:41:06.820Z,2.01
2022-10-20T01:42:06.838Z,2.13
2022-10-20T01:43:06.817Z,2.13
2022-10-20T01:44:06.839Z,2.49
2022-10-20T01:45:06.823Z,2.49
2022-10-20T01:46:06.817Z,2.69
2022-10-20T01:47:06.817Z,2.69
2022-10-20T01:48:06.811Z,2.66
2022-10-20T01:49:06.842Z,2.66
2022-10-20T01:50:06.812Z,2.26
2022-10-20T01:51:06.809Z,2.26
2022-10-20T01:52:06.843Z,2.07
2022-10-20T01:53:06.807Z,2.07
2022-10-20T01:54:06.807Z,2.06
2022-10-20T01:55:06.881Z,2.06
2022-10-20T01:56:06.799Z,2.96
2022-10-20T01:57:06.815Z,2.96
2022-10-20T01:58:06.809Z,1.94
2022-10-20T01:59:06.798Z,1.94
2022-10-20T02:00:06.792Z,2.8
2022-10-20T02:01:06.792Z,2.8
2022-10-20T02:02:06.813Z,2.57
2022-10-20T02:03:06.788Z,2.57
2022-10-20T02:04:06.788Z,2.25
2022-10-20T02:05:06.791Z,2.25
2022-10-20T02:06:06.805Z,2.11
2022-10-20T02:07:06.798Z,2.11
2022-10-20T02:08:06.784Z,1.95
2022-10-20T02:09:06.794Z,1.95
2022-10-20T02:10:06.785Z,2.35
2022-10-20T02:11:06.823Z,2.35
2022-10-20T02:12:06.806Z,2.6
2022-10-20T02:13:06.786Z,2.6
2022-10-20T02:14:06.787Z,2.11
2022-10-20T02:15:06.785Z,2.11
2022-10-20T02:16:06.813Z,1.87
2022-10-20T02:17:06.783Z,1.87
2022-10-20T02:18:06.780Z,2.69
2022-10-20T02:19:06.783Z,2.69
2022-10-20T02:20:06.786Z,2.94
2022-10-20T02:21:06.795Z,2.94
2022-10-20T02:22:06.788Z,2.57
2022-10-20T02:23:06.801Z,2.57
2022-10-20T02:24:06.778Z,2.4
2022-10-20T02:25:06.783Z,2.4
2022-10-20T02:26:06.771Z,2.09
2022-10-20T02:27:06.791Z,2.09
2022-10-20T02:28:06.772Z,2.39
2022-10-20T02:29:06.773Z,2.39
2022-10-20T02:30:06.778Z,2.39
2022-10-20T02:31:06.763Z,2.39
2022-10-20T02:32:06.777Z,2.12
2022-10-20T02:33:06.755Z,2.12
2022-10-20T02:34:06.763Z,2.24
2022-10-20T02:35:07.044Z,2.24
2022-10-20T02:36:06.755Z,2.78
2022-10-20T02:37:06.809Z,2.78
2022-10-20T02:38:06.758Z,2.2
2022-10-20T02:39:06.749Z,2.2
2022-10-20T02:40:06.766Z,2.15
2022-10-20T02:41:06.751Z,2.15
2022-10-20T02:42:06.752Z,2.7
2022-10-20T02:43:06.784Z,2.7
2022-10-20T02:44:06.744Z,2.5
2022-10-20T02:45:06.769Z,2.5
2022-10-20T02:46:06.831Z,2.38
2022-10-20T02:47:06.761Z,2.38
2022-10-20T02:48:07.938Z,2.43
2022-10-20T02:49:06.737Z,2.43
2022-10-20T02:50:06.741Z,2.45
2022-10-20T02:51:06.749Z,2.45
2022-10-20T02:52:06.738Z,2.63
2022-10-20T02:53:06.734Z,2.63
2022-10-20T02:54:06.745Z,2.16
2022-10-20T02:55:06.792Z,2.16
2022-10-20T02:56:06.745Z,2.17
2022-10-20T02:57:06.731Z,2.17
2022-10-20T02:58:06.724Z,2.3
2022-10-20T02:59:06.774Z,2.3
2022-10-20T03:00:06.751Z,2.83
2022-10-20T03:01:06.725Z,2.83
2022-10-20T03:02:06.841Z,1.99
2022-10-20T03:03:06.739Z,1.99
2022-10-20T03:04:06.761Z,2.78
2022-10-20T03:05:06.722Z,2.78
2022-10-20T03:06:06.715Z,2.39
2022-10-20T03:07:06.718Z,2.39
2022-10-20T03:08:06.729Z,2.56
2022-10-20T03:09:06.728Z,2.56
2022-10-20T03:10:06.725Z,2.71
2022-10-20T03:11:06.720Z,2.71
2022-10-20T03:12:06.716Z,2.54
2022-10-20T03:13:06.723Z,2.54
2022-10-20T03:14:06.721Z,2.63
2022-10-20T03:15:06.746Z,2.63
2022-10-20T03:16:06.710Z,2.08
2022-10-20T03:17:06.719Z,2.08
2022-10-20T03:18:06.711Z,2.43
2022-10-20T03:19:09.097Z,2.43
2022-10-20T03:20:06.708Z,2.24
2022-10-20T03:21:06.710Z,2.24
2022-10-20T03:22:06.719Z,2.01
2022-10-20T03:23:06.731Z,2.01
2022-10-20T03:24:06.707Z,3.38
2022-10-20T03:25:06.711Z,3.38
2022-10-20T03:26:06.694Z,2.69
2022-10-20T03:27:06.696Z,2.69
2022-10-20T03:28:06.706Z,2.61
2022-10-20T03:29:06.695Z,2.61
2022-10-20T03:30:06.693Z,2.12
2022-10-20T03:31:06.712Z,2.12
2022-10-20T03:32:06.693Z,2.33
2022-10-20T03:33:06.702Z,2.33
2022-10-20T03:34:06.717Z,2.21
2022-10-20T03:35:06.692Z,2.21
2022-10-20T03:36:06.687Z,2.9
2022-10-20T03:37:06.681Z,2.9
2022-10-20T03:38:06.697Z,3.01
2022-10-20T03:39:06.683Z,3.01
2022-10-20T03:40:06.687Z,2.84
2022-10-20T03:41:06.684Z,2.84
2022-10-20T03:42:06.692Z,2.84
2022-10-20T03:43:06.695Z,2.84
2022-10-20T03:44:06.684Z,2.59
2022-10-20T03:45:06.675Z,2.59
2022-10-20T03:46:06.681Z,2.49
2022-10-20T03:47:06.713Z,2.49
2022-10-20T03:48:06.677Z,2.52
2022-10-20T03:49:06.682Z,2.52
2022-10-20T03:50:06.683Z,2.81
2022-10-20T03:51:06.677Z,2.81
2022-10-20T03:52:06.679Z,2.65
2022-10-20T03:53:06.668Z,2.65
2022-10-20T03:54:06.676Z,2.63
2022-10-20T03:55:06.660Z,2.63
2022-10-20T03:56:06.674Z,2.28
2022-10-20T03:57:07.863Z,2.28
2022-10-20T03:58:06.664Z,2.86
2022-10-20T03:59:06.676Z,2.86
2022-10-20T04:00:06.659Z,2.8
2022-10-20T04:01:06.677Z,2.8
2022-10-20T04:02:06.749Z,2.95
2022-10-20T04:03:06.685Z,2.95
2022-10-20T04:04:06.658Z,2.47
2022-10-20T04:05:06.688Z,2.47
2022-10-20T04:06:06.660Z,2.45
2022-10-20T04:07:06.654Z,2.45
2022-10-20T04:08:06.688Z,2.26
2022-10-20T04:09:06.743Z,2.26
2022-10-20T04:10:06.664Z,2.3
2022-10-20T04:11:06.649Z,2.3
2022-10-20T04:12:06.644Z,2.46
2022-10-20T04:13:07.404Z,2.46
2022-10-20T04:14:06.656Z,2.82
2022-10-20T04:15:06.676Z,2.82
2022-10-20T04:16:06.636Z,2.28
2022-10-20T04:17:06.633Z,2.28
2022-10-20T04:18:06.638Z,2.9
2022-10-20T04:19:06.665Z,2.9
2022-10-20T04:20:06.648Z,2.68
2022-10-20T04:21:06.648Z,2.68
2022-10-20T04:22:06.650Z,2.73
2022-10-20T04:23:06.661Z,2.73
2022-10-20T04:24:06.638Z,2.04
2022-10-20T04:25:06.635Z,2.04
2022-10-20T04:26:06.660Z,2.8
2022-10-20T04:27:06.623Z,2.8
2022-10-20T04:28:06.637Z,2.33
2022-10-20T04:29:06.623Z,2.33
2022-10-20T04:30:06.620Z,2.39
2022-10-20T04:31:06.642Z,2.39
2022-10-20T04:32:06.637Z,3.01
2022-10-20T04:33:06.637Z,3.01
2022-10-20T04:34:06.616Z,2.97
2022-10-20T04:35:06.641Z,2.97
2022-10-20T04:36:06.615Z,2.6
2022-10-20T04:37:06.615Z,2.6
2022-10-20T04:38:06.633Z,2.87
2022-10-20T04:39:06.607Z,2.87
2022-10-20T04:40:06.610Z,2.95
2022-10-20T04:41:06.616Z,2.95
2022-10-20T04:42:06.611Z,2.27
2022-10-20T04:43:06.628Z,2.27
2022-10-20T04:44:06.610Z,2.7
2022-10-20T04:45:06.618Z,2.7
2022-10-20T04:46:08.437Z,2.82
2022-10-20T04:47:06.608Z,2.82
2022-10-20T04:48:06.614Z,2.11
2022-10-20T04:49:06.599Z,2.11
2022-10-20T04:50:06.613Z,2.39
2022-10-20T04:51:06.632Z,2.39
2022-10-20T04:52:06.595Z,2.77
2022-10-20T04:53:06.638Z,2.77
2022-10-20T04:54:06.606Z,3.19
2022-10-20T04:55:06.603Z,3.19
2022-10-20T04:56:06.596Z,2.68
2022-10-20T04:57:06.587Z,2.68
2022-10-20T04:58:06.601Z,2.94
2022-10-20T04:59:09.659Z,2.94
2022-10-20T05:00:06.593Z,2.75
2022-10-20T05:01:06.586Z,2.75
2022-10-20T05:02:06.694Z,2.57
2022-10-20T05:03:06.660Z,2.57
2022-10-20T05:04:06.592Z,2.66
2022-10-20T05:05:06.583Z,2.66
2022-10-20T05:06:06.588Z,2.29
2022-10-20T05:07:06.618Z,2.29
2022-10-20T05:08:06.599Z,2.7
2022-10-20T05:09:06.663Z,2.7
2022-10-20T05:10:06.580Z,2.6
2022-10-20T05:11:06.573Z,2.6
2022-10-20T05:12:06.640Z,2.19
2022-10-20T05:13:06.579Z,2.19
2022-10-20T05:14:06.585Z,2.42
2022-10-20T05:15:06.564Z,2.42
2022-10-20T05:16:06.652Z,2.45
2022-10-20T05:17:09.301Z,2.45
2022-10-20T05:18:06.570Z,3.74
2022-10-20T05:19:06.582Z,3.74
2022-10-20T05:20:06.568Z,2.64
2022-10-20T05:21:09.400Z,2.64
2022-10-20T05:22:06.563Z,2.85
2022-10-20T05:23:06.623Z,2.85
2022-10-20T05:24:06.586Z,3.05
2022-10-20T05:25:35.172Z,3.05
2022-10-20T05:26:06.561Z,2.94
2022-10-20T05:27:06.560Z,2.94
2022-10-20T05:28:06.554Z,3.8
2022-10-20T05:29:06.567Z,3.8
2022-10-20T05:30:06.573Z,2.88
2022-10-20T05:31:06.554Z,2.88
2022-10-20T05:32:06.559Z,2.55
2022-10-20T05:33:06.556Z,2.55
2022-10-20T05:34:06.588Z,2.4
2022-10-20T05:35:06.546Z,2.4
2022-10-20T05:36:06.545Z,3.11
2022-10-20T05:37:06.547Z,3.11
2022-10-20T05:38:06.555Z,2.71
2022-10-20T05:39:06.582Z,2.71
2022-10-20T05:40:06.546Z,2.35
2022-10-20T05:41:06.548Z,2.35
2022-10-20T05:42:06.544Z,2.53
2022-10-20T05:43:06.545Z,2.53
2022-10-20T05:44:06.557Z,2.36
2022-10-20T05:45:06.535Z,2.36
2022-10-20T05:46:06.548Z,2.54
2022-10-20T05:47:06.529Z,2.54
2022-10-20T05:48:06.555Z,2.64
2022-10-20T05:49:06.531Z,2.64
2022-10-20T05:50:06.533Z,3.23
2022-10-20T05:51:08.387Z,3.23
2022-10-20T05:52:06.552Z,2.8
2022-10-20T05:53:06.523Z,2.8
2022-10-20T05:54:06.526Z,2.43
2022-10-20T05:55:06.550Z,2.43
2022-10-20T05:56:06.526Z,2.97
2022-10-20T05:57:06.545Z,2.97
2022-10-20T05:58:06.522Z,3.15
2022-10-20T05:59:06.523Z,3.15
2022-10-20T06:00:06.536Z,2.71
2022-10-20T06:01:06.519Z,2.71
2022-10-20T06:02:06.528Z,2.95
2022-10-20T06:03:06.517Z,2.95
2022-10-20T06:04:06.514Z,2.58
2022-10-20T06:05:06.529Z,2.58
2022-10-20T06:06:06.512Z,2.95
2022-10-20T06:07:06.535Z,2.95
2022-10-20T06:08:06.509Z,2.63
2022-10-20T06:09:06.528Z,2.63
2022-10-20T06:10:06.504Z,3.27
2022-10-20T06:11:06.541Z,3.27
2022-10-20T06:13:06.531Z,2.4
2022-10-20T06:14:06.503Z,2.72
2022-10-20T06:15:06.526Z,2.72
2022-10-20T06:16:06.504Z,2.35
2022-10-20T06:17:06.518Z,2.35
2022-10-20T06:18:06.510Z,2.92
2022-10-20T06:19:06.495Z,2.92
2022-10-20T06:20:06.495Z,2.12
2022-10-20T06:21:06.511Z,2.12
2022-10-20T06:22:07.057Z,2.34
2022-10-20T06:23:06.528Z,2.34
2022-10-20T06:24:06.510Z,3.19
2022-10-20T06:25:06.487Z,3.19
2022-10-20T06:26:06.497Z,2.3
2022-10-20T06:27:06.525Z,2.3
2022-10-20T06:28:06.487Z,3.67
2022-10-20T06:29:06.502Z,3.67
2022-10-20T06:30:06.491Z,2.55
2022-10-20T06:31:06.486Z,2.55
2022-10-20T06:32:06.539Z,2.73
2022-10-20T06:33:06.481Z,2.73
2022-10-20T06:34:06.529Z,2.77
2022-10-20T06:35:06.474Z,2.77
2022-10-20T06:36:06.490Z,3.26
2022-10-20T06:37:06.497Z,3.26
2022-10-20T06:38:06.479Z,2.72
2022-10-20T06:39:06.472Z,2.72
2022-10-20T06:40:06.477Z,2.48
2022-10-20T06:41:06.475Z,2.48
2022-10-20T06:42:09.588Z,2.78
2022-10-20T06:43:06.501Z,2.78
2022-10-20T06:44:06.499Z,2.68
2022-10-20T06:45:06.474Z,2.68
2022-10-20T06:46:06.473Z,2.93
2022-10-20T06:47:06.508Z,2.93
2022-10-20T06:48:06.477Z,2.45
2022-10-20T06:49:06.465Z,2.45
2022-10-20T06:50:06.463Z,2.67
2022-10-20T06:51:06.457Z,2.67
2022-10-20T06:52:06.519Z,2.41
2022-10-20T06:53:06.463Z,2.41
2022-10-20T06:54:06.473Z,2.71
2022-10-20T06:55:06.457Z,2.71
2022-10-20T06:56:06.468Z,2.81
2022-10-20T06:57:06.469Z,2.81
2022-10-20T06:58:06.466Z,2.65
2022-10-20T06:59:06.483Z,2.65
2022-10-20T07:00:06.449Z,2.66
2022-10-20T07:01:09.989Z,2.66
2022-10-20T07:02:06.574Z,2.24
2022-10-20T07:03:06.439Z,2.24
2022-10-20T07:04:06.439Z,2.54
2022-10-20T07:05:06.440Z,2.54
2022-10-20T07:06:06.442Z,2.36
2022-10-20T07:07:06.455Z,2.36
2022-10-20T07:08:06.458Z,2.89
2022-10-20T07:09:06.507Z,2.89
2022-10-20T07:10:06.479Z,2.84
2022-10-20T07:11:06.455Z,2.84
2022-10-20T07:12:06.438Z,2.34
2022-10-20T07:13:06.445Z,2.34
2022-10-20T07:14:06.452Z,2.55
2022-10-20T07:15:06.469Z,2.55
2022-10-20T07:16:06.438Z,2.47
2022-10-20T07:17:06.432Z,2.47
2022-10-20T07:18:06.500Z,2.95
2022-10-20T07:19:06.431Z,2.95
2022-10-20T07:20:06.451Z,2.33
2022-10-20T07:21:06.472Z,2.33
2022-10-20T07:22:06.441Z,2.52
2022-10-20T07:23:06.476Z,2.52
2022-10-20T07:24:06.425Z,2.59
2022-10-20T07:25:06.420Z,2.59
2022-10-20T07:26:06.431Z,2.41
2022-10-20T07:27:06.432Z,2.41
2022-10-20T07:28:06.436Z,2.53
2022-10-20T07:29:06.423Z,2.53
2022-10-20T07:30:06.422Z,2.62
2022-10-20T07:31:06.449Z,2.62
2022-10-20T07:32:06.437Z,2.47
2022-10-20T07:33:06.427Z,2.47
2022-10-20T07:34:12.853Z,2.24
2022-10-20T07:35:06.413Z,2.24
2022-10-20T07:36:06.403Z,2.85
2022-10-20T07:37:06.426Z,2.85
2022-10-20T07:38:06.411Z,2.65
2022-10-20T07:39:06.443Z,2.65
2022-10-20T07:40:06.407Z,2.74
2022-10-20T07:41:06.402Z,2.74
2022-10-20T07:42:06.412Z,4.22
2022-10-20T07:43:06.407Z,4.22
2022-10-20T07:44:06.400Z,3.16
2022-10-20T07:45:06.399Z,3.16
2022-10-20T07:46:06.396Z,2.75
2022-10-20T07:47:06.439Z,2.75
2022-10-20T07:48:06.393Z,3.13
2022-10-20T07:49:38.255Z,3.13
2022-10-20T07:50:06.415Z,3.1
2022-10-20T07:51:06.416Z,3.1
2022-10-20T07:52:06.401Z,2.88
2022-10-20T07:53:06.389Z,2.88
2022-10-20T07:54:06.423Z,3.62
2022-10-20T07:55:17.689Z,3.62
2022-10-20T07:56:06.384Z,3.08
2022-10-20T07:57:06.382Z,3.08
2022-10-20T07:58:06.393Z,3.54
2022-10-20T07:59:06.431Z,3.54
2022-10-20T08:00:06.380Z,3.16
2022-10-20T08:01:06.378Z,3.16
2022-10-20T08:02:06.420Z,3.53
2022-10-20T08:03:06.421Z,3.53
2022-10-20T08:04:06.462Z,2.51
2022-10-20T08:05:06.380Z,2.51
2022-10-20T08:06:06.375Z,2.7
2022-10-20T08:07:06.388Z,2.7
2022-10-20T08:08:06.379Z,3.74
2022-10-20T08:09:06.504Z,3.74
2022-10-20T08:10:06.384Z,3.01
2022-10-20T08:11:06.367Z,3.01
2022-10-20T08:12:06.382Z,2.8
2022-10-20T08:13:06.363Z,2.8
2022-10-20T08:14:06.359Z,3.76
2022-10-20T08:15:07.388Z,3.76
2022-10-20T08:16:06.389Z,2.9
2022-10-20T08:17:06.378Z,2.9
2022-10-20T08:18:06.363Z,2.54
2022-10-20T08:19:06.446Z,2.54
2022-10-20T08:20:07.384Z,2.79
2022-10-20T08:21:06.361Z,2.79
2022-10-20T08:22:06.352Z,2.92
2022-10-20T08:23:06.387Z,2.92
2022-10-20T08:24:06.365Z,2.59
2022-10-20T08:25:06.379Z,2.59
2022-10-20T08:26:10.638Z,2.89
2022-10-20T08:27:06.352Z,2.89
2022-10-20T08:28:06.366Z,3.14
2022-10-20T08:29:06.368Z,3.14
2022-10-20T08:30:22.926Z,2.63
2022-10-20T08:31:06.339Z,2.63
2022-10-20T08:32:06.338Z,2.31
2022-10-20T08:33:06.359Z,2.31
2022-10-20T08:34:06.339Z,2.79
2022-10-20T08:35:06.360Z,2.79
2022-10-20T08:36:06.341Z,3.12
2022-10-20T08:37:06.391Z,3.12
2022-10-20T08:38:06.351Z,2.35
2022-10-20T08:39:06.629Z,2.35
2022-10-20T08:40:06.336Z,2.48
2022-10-20T08:41:06.335Z,2.48
2022-10-20T08:42:09.314Z,2.84
2022-10-20T08:43:06.350Z,2.84
2022-10-20T08:44:06.329Z,2.58
2022-10-20T08:45:06.334Z,2.58
2022-10-20T08:46:06.392Z,2.75
2022-10-20T08:47:06.339Z,2.75
2022-10-20T08:48:06.325Z,2.71
2022-10-20T08:49:06.338Z,2.71
2022-10-20T08:50:06.345Z,2.63
2022-10-20T08:51:06.352Z,2.63
2022-10-20T08:52:06.332Z,2.92
2022-10-20T08:53:06.331Z,2.92
2022-10-20T08:54:06.334Z,2.82
2022-10-20T08:55:06.328Z,2.82
2022-10-20T08:56:06.314Z,2.71
2022-10-20T08:57:06.315Z,2.71
2022-10-20T08:58:06.342Z,2.55
2022-10-20T08:59:06.325Z,2.55
2022-10-20T09:00:08.995Z,2.66
2022-10-20T09:01:06.334Z,2.66
2022-10-20T09:02:06.361Z,3.41
2022-10-20T09:03:06.336Z,3.41
2022-10-20T09:04:06.323Z,2.37
2022-10-20T09:05:06.342Z,2.37
2022-10-20T09:06:06.384Z,2.75
2022-10-20T09:07:06.351Z,2.75
2022-10-20T09:08:06.315Z,2.62
2022-10-20T09:09:06.398Z,2.62
2022-10-20T09:10:06.339Z,2.43
2022-10-20T09:11:06.318Z,2.43
2022-10-20T09:12:06.332Z,2.85
2022-10-20T09:13:06.316Z,2.85
2022-10-20T09:14:06.325Z,2.57
2022-10-20T09:15:06.316Z,2.57
2022-10-20T09:16:06.309Z,2.26
2022-10-20T09:17:09.155Z,2.26
2022-10-20T09:18:06.320Z,3.18
2022-10-20T09:19:06.311Z,3.18
2022-10-20T09:20:06.324Z,2.66
2022-10-20T09:21:06.331Z,2.66
2022-10-20T09:22:06.304Z,2.49
2022-10-20T09:23:16.473Z,2.49
2022-10-20T09:24:06.305Z,3
2022-10-20T09:25:06.305Z,3
2022-10-20T09:26:06.314Z,2.62
2022-10-20T09:27:06.313Z,2.62
2022-10-20T09:28:06.301Z,2.66
2022-10-20T09:29:13.109Z,2.66
2022-10-20T09:30:06.334Z,2.07
2022-10-20T09:31:06.289Z,2.07
2022-10-20T09:32:28.028Z,2.48
2022-10-20T09:33:06.313Z,2.48
2022-10-20T09:34:06.291Z,2.4
2022-10-20T09:35:06.290Z,2.4
2022-10-20T09:36:06.368Z,2.93
2022-10-20T09:37:06.289Z,2.93
2022-10-20T09:38:06.288Z,2.45
2022-10-20T09:39:06.323Z,2.45
2022-10-20T09:40:06.285Z,2.9
2022-10-20T09:41:06.286Z,2.9
2022-10-20T09:42:06.297Z,2.44
2022-10-20T09:43:06.284Z,2.44
2022-10-20T09:44:06.278Z,2.66
2022-10-20T09:45:06.274Z,2.66
2022-10-20T09:46:06.320Z,3.05
2022-10-20T09:47:06.291Z,3.05
